createdAt,value
2019-05-10T00:04:47.565Z,70.12
2019-05-10T00:11:09.069Z,69.86
2019-05-10T00:17:22.115Z,69.51
2019-05-10T00:23:27.887Z,69.22
2019-05-10T00:29:33.671Z,68.91
2019-05-10T00:35:39.418Z,68.54
2019-05-10T00:41:45.334Z,68.11
2019-05-10T00:47:51.334Z,67.60
2019-05-10T00:53:57.049Z,67.50
2019-05-10T01:00:02.800Z,67.57
2019-05-10T01:06:08.628Z,67.72
2019-05-10T01:12:14.313Z,67.72
2019-05-10T01:18:20.136Z,67.58
2019-05-10T01:24:25.860Z,67.48
2019-05-10T01:30:31.572Z,67.53
2019-05-10T01:36:39.549Z,67.35
2019-05-10T01:42:45.310Z,67.43
2019-05-10T01:48:51.621Z,67.48
2019-05-10T01:54:57.939Z,67.62
2019-05-10T02:01:04.250Z,67.44
2019-05-10T02:07:09.970Z,67.46
2019-05-10T02:13:15.682Z,67.50
2019-05-10T02:19:22.751Z,67.66
2019-05-10T02:25:28.473Z,67.58
2019-05-10T02:31:34.219Z,67.60
2019-05-10T02:37:39.956Z,67.54
2019-05-10T02:43:46.016Z,67.26
2019-05-10T02:49:51.770Z,67.20
2019-05-10T02:55:58.870Z,67.18
2019-05-10T03:02:07.599Z,67.23
2019-05-10T03:08:16.415Z,67.44
2019-05-10T03:14:24.062Z,68.10
2019-05-10T03:20:31.397Z,68.21
2019-05-10T03:26:50.263Z,68.71
2019-05-10T03:32:49.469Z,69.12
2019-05-10T03:38:55.558Z,69.18
2019-05-10T03:45:01.284Z,69.54
2019-05-10T03:51:07.323Z,69.79
2019-05-10T03:57:14.664Z,69.94
2019-05-10T04:03:21.088Z,70.18
2019-05-10T04:09:27.038Z,70.81
2019-05-10T04:15:32.895Z,71.24
2019-05-10T04:21:38.631Z,71.59
2019-05-10T04:27:44.355Z,71.82
2019-05-10T04:33:50.203Z,72.04
2019-05-10T04:39:56.086Z,72.27
2019-05-10T04:46:01.894Z,72.33
2019-05-10T04:52:08.146Z,72.38
2019-05-10T04:58:13.876Z,72.50
2019-05-10T05:04:19.753Z,72.56
2019-05-10T05:10:25.524Z,72.38
2019-05-10T05:16:31.260Z,72.55
2019-05-10T05:22:37.083Z,72.48
2019-05-10T05:28:42.944Z,72.45
2019-05-10T05:34:48.700Z,72.35
2019-05-10T05:40:54.831Z,72.22
2019-05-10T05:47:04.421Z,72.24
2019-05-10T05:53:08.378Z,72.41
2019-05-10T05:59:17.346Z,72.25
2019-05-10T06:05:34.072Z,72.01
2019-05-10T06:11:35.137Z,71.56
2019-05-10T06:17:37.131Z,70.88
2019-05-10T06:23:43.700Z,70.11
2019-05-10T06:29:49.725Z,69.20
2019-05-10T06:35:55.482Z,69.04
2019-05-10T06:42:02.277Z,68.70
2019-05-10T06:48:08.132Z,68.13
2019-05-10T06:54:14.082Z,67.36
2019-05-10T07:00:20.197Z,67.17
2019-05-10T07:06:25.984Z,67.11
2019-05-10T07:12:31.743Z,66.96
2019-05-10T07:18:37.681Z,66.52
2019-05-10T07:24:43.487Z,66.23
2019-05-10T07:30:49.224Z,65.87
2019-05-10T07:36:55.558Z,65.64
2019-05-10T07:43:01.350Z,65.22
2019-05-10T07:49:07.252Z,64.99
2019-05-10T07:55:18.554Z,65.07
2019-05-10T08:01:29.114Z,64.12
2019-05-10T08:07:29.384Z,63.37
2019-05-10T08:13:35.571Z,62.38
2019-05-10T08:19:42.146Z,56.22
2019-05-10T08:25:47.869Z,53.99
2019-05-10T08:31:56.006Z,53.42
2019-05-10T08:38:04.551Z,53.10
2019-05-10T08:44:19.121Z,50.66
2019-05-10T08:50:42.216Z,51.15
2019-05-10T08:56:25.360Z,51.82
2019-05-10T09:02:32.873Z,51.97
2019-05-10T09:08:38.797Z,50.40
2019-05-10T09:14:48.827Z,48.77
2019-05-10T09:21:00.494Z,48.62
2019-05-10T09:27:02.658Z,48.53
2019-05-10T09:33:10.319Z,49.08
2019-05-10T09:39:21.331Z,49.07
2019-05-10T09:45:24.361Z,48.45
2019-05-10T09:51:33.093Z,48.93
2019-05-10T09:57:38.223Z,49.38
2019-05-10T10:03:44.980Z,48.94
2019-05-10T10:09:50.863Z,47.47
2019-05-10T10:15:58.121Z,48.47
2019-05-10T10:22:05.743Z,47.97
2019-05-10T10:28:16.977Z,46.05
2019-05-10T10:34:19.016Z,45.59
2019-05-10T10:40:24.852Z,46.50
2019-05-10T10:46:33.956Z,46.59
2019-05-10T10:52:38.202Z,46.86
2019-05-10T10:58:44.000Z,47.29
2019-05-10T11:04:49.912Z,47.57
2019-05-10T11:10:55.649Z,47.56
2019-05-10T11:17:01.360Z,48.79
2019-05-10T11:23:07.198Z,49.47
2019-05-10T11:29:13.929Z,50.07
2019-05-10T11:35:28.523Z,50.88
2019-05-10T11:41:28.314Z,51.76
2019-05-10T11:47:34.113Z,53.30
2019-05-10T11:53:41.471Z,56.36
2019-05-10T11:59:47.575Z,57.24
2019-05-10T12:06:04.361Z,58.62
2019-05-10T12:12:03.380Z,60.31
2019-05-10T12:18:14.712Z,61.47
2019-05-10T12:26:29.497Z,62.63
2019-05-10T12:30:29.594Z,63.67
2019-05-10T12:36:33.437Z,63.34
2019-05-10T12:42:41.581Z,62.91
2019-05-10T12:48:46.929Z,62.52
2019-05-10T12:54:53.303Z,60.85
2019-05-10T13:00:59.286Z,60.02
2019-05-10T13:07:05.094Z,57.66
2019-05-10T13:13:11.110Z,56.14
2019-05-10T13:19:20.122Z,54.49
2019-05-10T13:25:25.066Z,53.12
2019-05-10T13:31:30.901Z,51.98
2019-05-10T13:37:36.736Z,51.33
2019-05-10T13:43:42.669Z,50.70
2019-05-10T13:49:49.314Z,49.30
2019-05-10T13:55:55.241Z,50.64
2019-05-10T14:02:01.197Z,51.76
2019-05-10T14:08:07.059Z,53.06
2019-05-10T14:14:14.518Z,52.58
2019-05-10T14:20:25.047Z,53.33
2019-05-10T14:26:28.220Z,52.89
2019-05-10T14:32:34.108Z,56.24
2019-05-10T14:38:39.910Z,57.59
2019-05-10T14:44:45.631Z,59.40
2019-05-10T14:50:51.477Z,59.25
2019-05-10T14:56:57.242Z,60.82
2019-05-10T15:03:03.805Z,60.59
2019-05-10T15:09:20.237Z,59.52
2019-05-10T15:15:18.305Z,58.47
2019-05-10T15:21:24.099Z,56.65
2019-05-10T15:27:29.917Z,52.03
2019-05-10T15:33:35.784Z,49.94
2019-05-10T15:39:41.914Z,48.41
2019-05-10T15:45:52.455Z,46.38
2019-05-10T15:52:15.185Z,47.89
2019-05-10T15:58:03.705Z,49.26
2019-05-10T16:04:09.417Z,51.00
2019-05-10T16:10:15.679Z,51.20
2019-05-10T16:16:21.645Z,52.38
2019-05-10T16:22:30.382Z,53.50
2019-05-10T16:28:35.134Z,57.51
2019-05-10T16:34:40.879Z,59.45
2019-05-10T16:40:57.258Z,61.79
2019-05-10T16:46:54.140Z,60.04
2019-05-10T16:53:05.757Z,61.18
2019-05-10T16:59:07.806Z,64.73
2019-05-10T17:05:15.632Z,64.76
2019-05-10T17:11:21.149Z,64.17
2019-05-10T17:17:31.117Z,63.43
2019-05-10T17:23:34.455Z,62.93
2019-05-10T17:29:44.606Z,62.97
2019-05-10T17:35:47.727Z,62.50
2019-05-10T17:41:57.595Z,62.21
2019-05-10T17:48:08.066Z,62.75
2019-05-10T17:54:09.916Z,62.80
2019-05-10T18:00:17.405Z,63.74
2019-05-10T18:06:24.485Z,64.55
2019-05-10T18:12:30.510Z,64.73
2019-05-10T18:18:46.148Z,65.49
2019-05-10T18:24:44.425Z,66.16
2019-05-10T18:30:50.402Z,66.86
2019-05-10T18:36:56.285Z,67.39
2019-05-10T18:43:04.670Z,67.85
2019-05-10T18:49:10.009Z,68.57
2019-05-10T18:55:15.968Z,69.17
2019-05-10T19:01:21.897Z,69.69
2019-05-10T19:07:27.625Z,69.86
2019-05-10T19:13:40.156Z,70.71
2019-05-10T19:19:42.286Z,71.06
2019-05-10T19:25:51.693Z,70.99
2019-05-10T19:31:57.640Z,70.39
2019-05-10T19:38:03.685Z,70.63
2019-05-10T19:44:09.550Z,70.74
2019-05-10T19:50:16.050Z,70.69
2019-05-10T19:56:24.105Z,70.53
2019-05-10T20:02:30.007Z,70.76
2019-05-10T20:08:35.779Z,71.27
2019-05-10T20:14:41.810Z,71.53
2019-05-10T20:20:47.808Z,71.40
2019-05-10T20:26:53.527Z,71.51
2019-05-10T20:32:59.437Z,71.91
2019-05-10T20:39:07.384Z,72.34
2019-05-10T20:45:14.216Z,72.17
2019-05-10T20:51:20.672Z,71.99
2019-05-10T20:57:26.727Z,72.15
2019-05-10T21:03:32.629Z,72.61
2019-05-10T21:09:39.205Z,72.37
2019-05-10T21:15:45.031Z,72.25
2019-05-10T21:21:50.827Z,72.13
2019-05-10T21:27:56.600Z,71.67
2019-05-10T21:34:09.621Z,71.38
2019-05-10T21:40:10.943Z,71.33
2019-05-10T21:46:16.720Z,71.64
2019-05-10T21:52:22.731Z,72.20
2019-05-10T21:58:32.719Z,72.21
2019-05-10T22:04:38.441Z,72.34
2019-05-10T22:10:44.249Z,72.32
2019-05-10T22:16:50.120Z,72.06
2019-05-10T22:22:56.191Z,72.01
2019-05-10T22:29:02.097Z,72.07
2019-05-10T22:35:08.281Z,72.38
2019-05-10T22:41:14.370Z,72.79
2019-05-10T22:47:20.540Z,72.88
2019-05-10T22:53:26.349Z,72.93
2019-05-10T22:59:32.317Z,72.90
2019-05-10T23:05:38.201Z,73.14
2019-05-10T23:11:44.065Z,73.38
2019-05-10T23:17:49.763Z,73.55
2019-05-10T23:23:55.776Z,73.49
2019-05-10T23:30:01.637Z,73.24
2019-05-10T23:36:08.231Z,73.11
2019-05-10T23:42:13.984Z,72.98
2019-05-10T23:48:20.505Z,73.00
2019-05-10T23:54:26.478Z,72.95
